createdAt,value
2019-06-25T00:02:24.183Z,2.50
2019-06-25T00:04:52.738Z,2.90
2019-06-25T00:07:21.215Z,3.50
2019-06-25T00:09:49.751Z,2.87
2019-06-25T00:12:18.194Z,3.20
2019-06-25T00:14:46.647Z,2.63
2019-06-25T00:17:15.282Z,2.93
2019-06-25T00:19:43.833Z,2.93
2019-06-25T00:22:12.313Z,2.33
2019-06-25T00:24:40.837Z,2.20
2019-06-25T00:27:09.381Z,2.80
2019-06-25T00:29:38.070Z,2.77
2019-06-25T00:32:06.506Z,2.23
2019-06-25T00:34:34.952Z,2.60
2019-06-25T00:37:03.414Z,2.63
2019-06-25T00:39:31.925Z,3.43
2019-06-25T00:42:00.395Z,2.73
2019-06-25T00:44:28.864Z,3.30
2019-06-25T00:46:57.317Z,3.17
2019-06-25T00:49:29.167Z,2.90
2019-06-25T00:51:58.164Z,3.30
2019-06-25T00:54:26.713Z,3.00
2019-06-25T00:56:55.272Z,2.70
2019-06-25T00:59:23.715Z,3.07
2019-06-25T01:01:53.802Z,3.40
2019-06-25T01:04:22.269Z,2.93
2019-06-25T01:06:50.712Z,2.80
2019-06-25T01:09:19.194Z,2.30
2019-06-25T01:11:48.534Z,3.47
2019-06-25T01:14:17.409Z,3.07
2019-06-25T01:16:45.911Z,3.30
2019-06-25T01:19:14.361Z,3.77
2019-06-25T01:21:42.799Z,3.43
2019-06-25T01:24:11.267Z,2.67
2019-06-25T01:26:39.735Z,2.87
2019-06-25T01:29:08.181Z,3.50
2019-06-25T01:31:36.669Z,2.70
2019-06-25T01:34:05.255Z,3.50
2019-06-25T01:36:33.702Z,2.60
2019-06-25T01:39:02.185Z,3.13
2019-06-25T01:41:30.814Z,3.70
2019-06-25T01:43:59.253Z,3.53
2019-06-25T01:46:27.717Z,3.80
2019-06-25T01:48:56.190Z,4.87
2019-06-25T01:51:24.658Z,3.13
2019-06-25T01:53:53.109Z,2.97
2019-06-25T01:56:21.558Z,2.93
2019-06-25T01:58:50.089Z,3.00
2019-06-25T02:01:18.601Z,3.80
2019-06-25T02:03:47.130Z,3.90
2019-06-25T02:06:15.670Z,2.90
2019-06-25T02:08:44.117Z,3.50
2019-06-25T02:11:12.643Z,3.53
2019-06-25T02:13:41.302Z,3.20
2019-06-25T02:16:10.034Z,3.70
2019-06-25T02:18:38.599Z,3.17
2019-06-25T02:21:07.102Z,3.20
2019-06-25T02:23:35.613Z,3.80
2019-06-25T02:26:04.586Z,3.80
2019-06-25T02:28:33.074Z,3.67
2019-06-25T02:31:07.904Z,4.10
2019-06-25T02:33:31.799Z,2.97
2019-06-25T02:36:00.355Z,3.23
2019-06-25T02:38:28.912Z,3.07
2019-06-25T02:40:57.727Z,4.00
2019-06-25T02:43:26.184Z,3.07
2019-06-25T02:45:54.775Z,4.00
2019-06-25T02:48:23.335Z,3.37
2019-06-25T02:50:51.989Z,3.53
2019-06-25T02:53:20.540Z,2.90
2019-06-25T02:55:49.100Z,3.87
2019-06-25T02:58:17.626Z,3.60
2019-06-25T03:00:46.201Z,3.60
2019-06-25T03:03:14.659Z,2.80
2019-06-25T03:05:43.204Z,3.23
2019-06-25T03:08:11.706Z,3.90
2019-06-25T03:10:40.185Z,3.93
2019-06-25T03:13:09.096Z,3.60
2019-06-25T03:15:37.829Z,3.60
2019-06-25T03:18:06.768Z,3.77
2019-06-25T03:20:35.443Z,2.60
2019-06-25T03:23:04.108Z,3.97
2019-06-25T03:25:32.697Z,2.90
2019-06-25T03:28:01.360Z,3.60
2019-06-25T03:30:29.899Z,3.83
2019-06-25T03:32:58.454Z,4.50
2019-06-25T03:35:26.964Z,4.30
2019-06-25T03:37:55.482Z,4.23
2019-06-25T03:40:23.975Z,4.23
2019-06-25T03:42:52.431Z,3.97
2019-06-25T03:45:20.985Z,3.40
2019-06-25T03:47:49.418Z,3.47
2019-06-25T03:50:18.142Z,3.73
2019-06-25T03:52:46.741Z,3.47
2019-06-25T03:55:15.454Z,3.73
2019-06-25T03:57:43.990Z,3.53
2019-06-25T04:00:13.673Z,3.20
2019-06-25T04:02:42.149Z,3.97
2019-06-25T04:05:10.909Z,3.60
2019-06-25T04:07:39.466Z,3.70
2019-06-25T04:10:08.341Z,3.20
2019-06-25T04:12:37.026Z,3.33
2019-06-25T04:15:07.294Z,3.40
2019-06-25T04:17:35.807Z,3.50
2019-06-25T04:20:08.576Z,3.10
2019-06-25T04:22:37.733Z,3.60
2019-06-25T04:25:07.330Z,3.50
2019-06-25T04:27:36.112Z,3.07
2019-06-25T04:30:08.090Z,3.37
2019-06-25T04:32:36.582Z,4.37
2019-06-25T04:35:07.055Z,3.47
2019-06-25T04:37:35.498Z,3.93
2019-06-25T04:40:06.321Z,3.87
2019-06-25T04:42:34.902Z,4.40
2019-06-25T04:45:08.950Z,3.70
2019-06-25T04:47:37.694Z,3.73
2019-06-25T04:50:09.372Z,3.33
2019-06-25T04:52:38.121Z,4.80
2019-06-25T04:55:07.719Z,2.90
2019-06-25T04:57:36.237Z,4.47
2019-06-25T05:00:11.718Z,4.33
2019-06-25T05:02:49.706Z,5.10
2019-06-25T05:05:11.026Z,3.77
2019-06-25T05:07:39.488Z,4.30
2019-06-25T05:10:09.574Z,4.13
2019-06-25T05:12:38.030Z,3.63
2019-06-25T05:15:09.630Z,3.70
2019-06-25T05:17:39.438Z,3.30
2019-06-25T05:20:08.747Z,3.23
2019-06-25T05:22:37.381Z,3.23
2019-06-25T05:25:06.358Z,3.07
2019-06-25T05:27:35.045Z,2.50
2019-06-25T05:30:07.550Z,3.03
2019-06-25T05:32:36.201Z,2.30
2019-06-25T05:35:10.725Z,2.60
2019-06-25T05:37:42.421Z,3.57
2019-06-25T05:40:13.074Z,2.73
2019-06-25T05:42:41.538Z,3.23
2019-06-25T05:45:13.178Z,3.33
2019-06-25T05:47:41.693Z,2.97
2019-06-25T05:50:10.620Z,3.10
2019-06-25T05:52:39.201Z,2.70
2019-06-25T05:55:07.928Z,2.30
2019-06-25T05:57:36.468Z,3.27
2019-06-25T06:00:10.131Z,2.73
2019-06-25T06:02:38.897Z,3.67
2019-06-25T06:05:09.405Z,3.13
2019-06-25T06:07:38.095Z,3.43
2019-06-25T06:10:10.547Z,3.23
2019-06-25T06:12:39.155Z,3.13
2019-06-25T06:15:10.340Z,2.43
2019-06-25T06:17:44.649Z,2.60
2019-06-25T06:20:13.005Z,3.10
2019-06-25T06:22:41.530Z,3.00
2019-06-25T06:25:10.239Z,2.70
2019-06-25T06:27:38.683Z,3.17
2019-06-25T06:30:07.472Z,3.53
2019-06-25T06:32:35.974Z,3.33
2019-06-25T06:35:05.219Z,2.63
2019-06-25T06:37:33.902Z,2.77
2019-06-25T06:40:02.435Z,3.37
2019-06-25T06:42:30.959Z,3.20
2019-06-25T06:44:59.683Z,3.07
2019-06-25T06:47:28.127Z,3.07
2019-06-25T06:49:56.651Z,2.90
2019-06-25T06:52:25.279Z,3.20
2019-06-25T06:54:53.799Z,2.73
2019-06-25T06:57:22.398Z,2.90
2019-06-25T06:59:50.850Z,3.10
2019-06-25T07:02:19.505Z,3.00
2019-06-25T07:04:48.269Z,3.47
2019-06-25T07:07:17.642Z,3.63
2019-06-25T07:09:46.112Z,3.23
2019-06-25T07:12:14.746Z,3.20
2019-06-25T07:14:43.340Z,3.10
2019-06-25T07:17:12.011Z,2.87
2019-06-25T07:19:40.803Z,3.10
2019-06-25T07:22:15.981Z,3.20
2019-06-25T07:24:39.601Z,3.07
2019-06-25T07:27:08.121Z,2.67
2019-06-25T07:29:37.046Z,3.37
2019-06-25T07:32:05.723Z,3.07
2019-06-25T07:34:34.402Z,2.73
2019-06-25T07:37:03.404Z,3.53
2019-06-25T07:39:32.443Z,3.23
2019-06-25T07:42:01.423Z,3.30
2019-06-25T07:44:30.293Z,4.10
2019-06-25T07:46:58.981Z,4.30
2019-06-25T07:49:30.610Z,3.50
2019-06-25T07:51:59.249Z,2.73
2019-06-25T07:54:27.774Z,3.33
2019-06-25T07:56:56.387Z,3.20
2019-06-25T07:59:25.186Z,3.83
2019-06-25T08:01:54.160Z,3.77
2019-06-25T08:04:25.627Z,3.70
2019-06-25T08:06:53.278Z,3.17
2019-06-25T08:09:21.722Z,3.90
2019-06-25T08:11:50.261Z,3.60
2019-06-25T08:14:18.724Z,4.50
2019-06-25T08:16:47.330Z,3.80
2019-06-25T08:19:15.799Z,3.73
2019-06-25T08:21:44.494Z,3.37
2019-06-25T08:24:12.958Z,3.80
2019-06-25T08:26:41.414Z,4.20
2019-06-25T08:29:09.876Z,4.07
2019-06-25T08:31:38.411Z,4.13
2019-06-25T08:34:06.866Z,3.67
2019-06-25T08:36:35.419Z,4.10
2019-06-25T08:39:06.009Z,3.77
2019-06-25T08:41:34.707Z,4.20
2019-06-25T08:44:03.466Z,4.07
2019-06-25T08:46:32.114Z,3.40
2019-06-25T08:49:00.700Z,4.30
2019-06-25T08:51:29.432Z,3.97
2019-06-25T08:53:58.072Z,3.27
2019-06-25T08:56:26.590Z,3.53
2019-06-25T08:58:55.055Z,3.70
2019-06-25T09:01:23.573Z,4.10
2019-06-25T09:04:00.909Z,3.60
2019-06-25T09:06:29.363Z,3.90
2019-06-25T09:08:57.922Z,3.90
2019-06-25T09:11:26.485Z,4.17
2019-06-25T09:13:54.934Z,4.00
2019-06-25T09:16:23.382Z,3.90
2019-06-25T09:18:51.880Z,3.50
2019-06-25T09:21:20.454Z,3.97
2019-06-25T09:23:48.970Z,3.97
2019-06-25T09:26:17.599Z,4.70
2019-06-25T09:28:46.167Z,3.53
2019-06-25T09:31:14.673Z,4.40
2019-06-25T09:33:43.161Z,3.60
2019-06-25T09:36:11.612Z,3.37
2019-06-25T09:38:40.126Z,4.07
2019-06-25T09:41:07.525Z,4.33
2019-06-25T09:43:35.271Z,4.00
2019-06-25T09:46:03.995Z,4.07
2019-06-25T09:48:32.988Z,4.33
2019-06-25T09:51:01.905Z,3.63
2019-06-25T09:53:30.480Z,3.77
2019-06-25T09:55:59.155Z,3.20
2019-06-25T09:58:29.516Z,3.80
2019-06-25T10:01:00.120Z,4.27
2019-06-25T10:03:28.657Z,3.40
2019-06-25T10:05:57.243Z,4.27
2019-06-25T10:08:25.928Z,3.57
2019-06-25T10:10:54.440Z,3.13
2019-06-25T10:13:23.049Z,3.60
2019-06-25T10:15:51.679Z,2.90
2019-06-25T10:18:20.279Z,4.13
2019-06-25T10:20:48.763Z,3.37
2019-06-25T10:23:17.298Z,3.00
2019-06-25T10:25:45.878Z,3.63
2019-06-25T10:28:28.725Z,3.40
2019-06-25T10:30:50.475Z,3.63
2019-06-25T10:33:19.081Z,3.20
2019-06-25T10:35:48.071Z,3.40
2019-06-25T10:38:16.670Z,2.83
2019-06-25T10:40:45.240Z,3.20
2019-06-25T10:43:13.777Z,3.57
2019-06-25T10:45:42.321Z,3.50
2019-06-25T10:48:10.911Z,3.23
2019-06-25T10:50:39.499Z,2.70
2019-06-25T10:53:08.173Z,2.90
2019-06-25T10:55:36.630Z,3.20
2019-06-25T10:58:05.224Z,3.20
2019-06-25T11:00:54.410Z,3.30
2019-06-25T11:03:23.027Z,9.20
2019-06-25T11:06:03.900Z,3.30
2019-06-25T11:08:22.126Z,3.20
2019-06-25T11:10:50.973Z,3.97
2019-06-25T11:13:19.593Z,2.77
2019-06-25T11:15:48.167Z,3.13
2019-06-25T11:18:16.922Z,3.27
2019-06-25T11:20:45.546Z,3.23
2019-06-25T11:23:14.312Z,3.00
2019-06-25T11:25:56.672Z,3.13
2019-06-25T11:28:13.664Z,3.50
2019-06-25T11:30:42.539Z,2.97
2019-06-25T11:33:11.537Z,2.70
2019-06-25T11:35:40.380Z,3.20
2019-06-25T11:38:09.209Z,3.03
2019-06-25T11:40:39.023Z,2.73
2019-06-25T11:43:08.526Z,2.67
2019-06-25T11:45:37.488Z,2.90
2019-06-25T11:48:06.734Z,2.30
2019-06-25T11:50:35.711Z,2.17
2019-06-25T11:53:05.107Z,4.03
2019-06-25T11:55:34.457Z,2.10
2019-06-25T11:58:03.328Z,2.20
2019-06-25T12:00:32.632Z,1.93
2019-06-25T12:03:01.666Z,2.23
2019-06-25T12:05:30.174Z,2.37
2019-06-25T12:07:59.020Z,2.03
2019-06-25T12:10:27.624Z,1.87
2019-06-25T12:12:56.377Z,2.40
2019-06-25T12:15:24.828Z,2.60
2019-06-25T12:17:53.380Z,2.50
2019-06-25T12:20:22.131Z,2.13
2019-06-25T12:22:50.598Z,3.20
2019-06-25T12:25:20.662Z,2.57
2019-06-25T12:27:49.111Z,2.40
2019-06-25T12:30:18.189Z,2.77
2019-06-25T12:32:46.664Z,3.00
2019-06-25T12:35:15.475Z,2.67
2019-06-25T12:37:43.917Z,2.77
2019-06-25T12:40:12.551Z,2.40
2019-06-25T12:42:40.994Z,2.07
2019-06-25T12:45:09.805Z,2.27
2019-06-25T12:47:38.370Z,2.10
2019-06-25T12:50:09.008Z,2.30
2019-06-25T12:52:37.712Z,2.43
2019-06-25T12:55:07.450Z,2.00
2019-06-25T12:57:35.894Z,1.80
2019-06-25T13:00:06.696Z,2.10
2019-06-25T13:02:35.302Z,2.00
2019-06-25T13:05:05.537Z,2.57
2019-06-25T13:07:34.042Z,1.77
2019-06-25T13:10:02.844Z,2.30
2019-06-25T13:12:31.319Z,2.27
2019-06-25T13:14:59.777Z,1.83
2019-06-25T13:17:28.242Z,1.90
2019-06-25T13:19:56.783Z,2.13
2019-06-25T13:22:25.308Z,2.20
2019-06-25T13:24:53.846Z,2.47
2019-06-25T13:27:22.371Z,2.27
2019-06-25T13:29:50.887Z,2.37
2019-06-25T13:32:19.370Z,2.23
2019-06-25T13:34:47.826Z,2.47
2019-06-25T13:37:16.277Z,2.50
2019-06-25T13:39:44.751Z,2.57
2019-06-25T13:42:13.206Z,1.80
2019-06-25T13:44:41.678Z,2.17
2019-06-25T13:47:10.217Z,2.10
2019-06-25T13:49:38.689Z,1.97
2019-06-25T13:52:07.206Z,2.40
2019-06-25T13:54:35.754Z,2.43
2019-06-25T13:57:04.281Z,3.07
2019-06-25T13:59:32.746Z,2.13
2019-06-25T14:02:01.306Z,2.80
2019-06-25T14:04:29.831Z,1.50
2019-06-25T14:06:58.359Z,1.70
2019-06-25T14:09:26.894Z,1.80
2019-06-25T14:11:55.800Z,2.17
2019-06-25T14:14:24.382Z,2.40
2019-06-25T14:16:53.106Z,2.17
2019-06-25T14:19:21.630Z,1.93
2019-06-25T14:21:50.139Z,2.50
2019-06-25T14:24:18.653Z,2.13
2019-06-25T14:26:47.100Z,1.97
2019-06-25T14:29:15.710Z,2.10
2019-06-25T14:31:44.227Z,2.33
2019-06-25T14:34:12.821Z,1.70
2019-06-25T14:36:41.320Z,2.50
2019-06-25T14:39:10.040Z,2.60
2019-06-25T14:41:38.639Z,2.13
2019-06-25T14:44:07.230Z,1.90
2019-06-25T14:46:35.865Z,2.07
2019-06-25T14:49:04.396Z,2.30
2019-06-25T14:51:32.984Z,1.97
2019-06-25T14:54:01.445Z,1.40
2019-06-25T14:56:29.958Z,2.20
2019-06-25T14:58:58.488Z,2.47
2019-06-25T15:01:26.978Z,2.37
2019-06-25T15:04:02.410Z,2.17
2019-06-25T15:06:30.998Z,2.00
2019-06-25T15:08:59.638Z,2.87
2019-06-25T15:11:28.242Z,1.87
2019-06-25T15:13:56.766Z,3.40
2019-06-25T15:16:25.408Z,2.97
2019-06-25T15:18:53.936Z,2.70
2019-06-25T15:21:24.710Z,2.10
2019-06-25T15:23:52.662Z,2.70
2019-06-25T15:26:21.397Z,2.13
2019-06-25T15:28:49.893Z,2.53
2019-06-25T15:31:18.445Z,2.60
2019-06-25T15:33:46.959Z,2.33
2019-06-25T15:36:15.446Z,2.60
2019-06-25T15:38:47.793Z,3.00
2019-06-25T15:41:14.402Z,2.30
2019-06-25T15:43:43.035Z,2.37
2019-06-25T15:46:11.593Z,2.87
2019-06-25T15:48:40.038Z,2.17
2019-06-25T15:51:08.573Z,2.30
2019-06-25T15:53:37.111Z,2.40
2019-06-25T15:56:05.826Z,2.43
2019-06-25T15:58:34.344Z,2.20
2019-06-25T16:01:02.943Z,2.30
2019-06-25T16:03:31.532Z,2.33
2019-06-25T16:06:00.834Z,2.60
2019-06-25T16:08:29.466Z,2.50
2019-06-25T16:10:57.988Z,2.47
2019-06-25T16:13:26.522Z,3.00
2019-06-25T16:15:55.014Z,2.30
2019-06-25T16:18:23.590Z,2.87
2019-06-25T16:20:52.081Z,2.40
2019-06-25T16:23:20.555Z,2.03
2019-06-25T16:25:49.438Z,3.83
2019-06-25T16:28:17.958Z,2.83
2019-06-25T16:30:46.582Z,2.20
2019-06-25T16:33:15.049Z,2.40
2019-06-25T16:35:43.582Z,2.17
2019-06-25T16:38:12.066Z,2.60
2019-06-25T16:40:40.623Z,3.33
2019-06-25T16:43:09.142Z,2.70
2019-06-25T16:45:37.614Z,3.00
2019-06-25T16:48:06.062Z,2.67
2019-06-25T16:50:34.590Z,3.33
2019-06-25T16:53:03.334Z,2.40
2019-06-25T16:55:33.066Z,2.93
2019-06-25T16:58:01.512Z,3.20
2019-06-25T17:00:29.977Z,2.80
2019-06-25T17:02:58.503Z,2.70
2019-06-25T17:05:32.571Z,3.00
2019-06-25T17:07:57.897Z,3.00
2019-06-25T17:10:26.355Z,3.50
2019-06-25T17:12:54.879Z,3.37
2019-06-25T17:15:23.495Z,2.90
2019-06-25T17:17:51.989Z,3.30
2019-06-25T17:20:20.477Z,3.37
2019-06-25T17:22:49.018Z,2.47
2019-06-25T17:25:17.578Z,3.10
2019-06-25T17:27:50.216Z,2.33
2019-06-25T17:30:16.677Z,3.50
2019-06-25T17:32:45.262Z,3.37
2019-06-25T17:35:13.950Z,3.33
2019-06-25T17:37:42.437Z,3.33
2019-06-25T17:40:12.647Z,2.90
2019-06-25T17:42:41.163Z,3.10
2019-06-25T17:45:09.865Z,3.07
2019-06-25T17:47:38.321Z,2.97
2019-06-25T17:50:07.914Z,2.97
2019-06-25T17:52:36.529Z,3.30
2019-06-25T17:55:08.161Z,2.93
2019-06-25T17:57:36.741Z,2.80
2019-06-25T18:00:09.030Z,2.80
2019-06-25T18:02:37.598Z,2.93
2019-06-25T18:05:08.057Z,3.40
2019-06-25T18:07:36.713Z,3.00
2019-06-25T18:10:09.308Z,3.80
2019-06-25T18:12:38.094Z,4.13
2019-06-25T18:15:07.142Z,2.97
2019-06-25T18:17:37.909Z,4.50
2019-06-25T18:20:07.300Z,3.50
2019-06-25T18:22:36.250Z,3.10
2019-06-25T18:25:06.761Z,3.97
2019-06-25T18:27:35.344Z,3.97
2019-06-25T18:30:05.949Z,3.40
2019-06-25T18:32:35.157Z,3.90
2019-06-25T18:35:06.591Z,4.00
2019-06-25T18:37:35.519Z,3.50
2019-06-25T18:40:06.101Z,4.30
2019-06-25T18:42:35.005Z,4.40
2019-06-25T18:45:05.653Z,3.93
2019-06-25T18:47:34.361Z,3.37
2019-06-25T18:50:03.108Z,3.97
2019-06-25T18:52:31.628Z,3.30
2019-06-25T18:55:03.973Z,3.90
2019-06-25T18:57:31.949Z,4.27
2019-06-25T19:00:01.234Z,3.47
2019-06-25T19:02:30.266Z,3.80
2019-06-25T19:04:59.524Z,3.97
2019-06-25T19:07:28.872Z,4.00
2019-06-25T19:09:57.825Z,4.30
2019-06-25T19:12:27.001Z,4.80
2019-06-25T19:14:56.571Z,4.17
2019-06-25T19:17:25.827Z,3.57
2019-06-25T19:19:54.842Z,3.60
2019-06-25T19:22:23.611Z,4.47
2019-06-25T19:24:52.151Z,3.90
2019-06-25T19:27:20.687Z,3.77
2019-06-25T19:29:51.080Z,4.20
2019-06-25T19:32:20.000Z,4.47
2019-06-25T19:34:49.620Z,4.33
2019-06-25T19:37:18.914Z,4.10
2019-06-25T19:39:50.945Z,3.97
2019-06-25T19:42:19.835Z,4.57
2019-06-25T19:44:48.647Z,3.33
2019-06-25T19:47:17.829Z,5.07
2019-06-25T19:49:46.723Z,4.27
2019-06-25T19:52:15.802Z,3.80
2019-06-25T19:54:44.664Z,3.60
2019-06-25T19:57:14.092Z,3.80
2019-06-25T19:59:42.585Z,3.83
2019-06-25T20:02:12.034Z,3.83
2019-06-25T20:04:40.762Z,4.20
2019-06-25T20:07:10.592Z,4.67
2019-06-25T20:09:40.433Z,3.70
2019-06-25T20:12:09.601Z,5.10
2019-06-25T20:14:38.374Z,3.73
2019-06-25T20:17:06.998Z,3.30
2019-06-25T20:19:35.609Z,4.87
2019-06-25T20:22:04.054Z,5.10
2019-06-25T20:24:32.514Z,4.20
2019-06-25T20:27:00.953Z,3.60
2019-06-25T20:29:29.398Z,3.70
2019-06-25T20:31:58.007Z,3.10
2019-06-25T20:34:26.547Z,4.45
2019-06-25T20:36:55.074Z,4.10
2019-06-25T20:39:23.634Z,4.13
2019-06-25T20:41:52.099Z,3.80
2019-06-25T20:44:20.613Z,4.87
2019-06-25T20:46:49.142Z,3.97
2019-06-25T20:49:17.610Z,3.70
2019-06-25T20:51:46.096Z,4.03
2019-06-25T20:54:14.626Z,3.70
2019-06-25T20:56:43.144Z,3.90
2019-06-25T20:59:11.987Z,4.10
2019-06-25T21:01:40.505Z,3.20
2019-06-25T21:04:09.019Z,3.80
2019-06-25T21:06:56.907Z,4.53
2019-06-25T21:09:25.341Z,4.90
2019-06-25T21:11:53.764Z,3.93
2019-06-25T21:14:22.292Z,4.30
2019-06-25T21:16:50.721Z,3.73
2019-06-25T21:19:19.136Z,3.57
2019-06-25T21:21:47.585Z,3.97
2019-06-25T21:24:16.097Z,4.07
2019-06-25T21:26:44.550Z,4.20
2019-06-25T21:29:13.341Z,3.80
2019-06-25T21:31:41.765Z,3.90
2019-06-25T21:34:10.258Z,4.60
2019-06-25T21:36:38.859Z,4.20
2019-06-25T21:39:07.353Z,4.43
2019-06-25T21:41:35.797Z,3.83
2019-06-25T21:44:04.295Z,4.53
2019-06-25T21:46:32.825Z,3.87
2019-06-25T21:49:01.292Z,4.00
2019-06-25T21:51:29.865Z,3.57
2019-06-25T21:53:58.626Z,3.90
2019-06-25T21:56:27.213Z,3.80
2019-06-25T21:58:55.637Z,4.50
2019-06-25T22:01:26.157Z,6.50
2019-06-25T22:03:54.893Z,4.70
2019-06-25T22:06:23.536Z,4.30
2019-06-25T22:08:52.096Z,3.97
2019-06-25T22:11:20.524Z,4.13
2019-06-25T22:13:49.015Z,4.53
2019-06-25T22:16:17.701Z,4.40
2019-06-25T22:18:46.311Z,3.97
2019-06-25T22:21:14.838Z,5.60
2019-06-25T22:23:43.336Z,5.90
2019-06-25T22:26:12.002Z,3.90
2019-06-25T22:28:40.582Z,4.43
2019-06-25T22:31:09.013Z,4.80
2019-06-25T22:33:37.439Z,4.70
2019-06-25T22:36:05.888Z,5.03
2019-06-25T22:38:34.313Z,4.43
2019-06-25T22:41:02.767Z,5.43
2019-06-25T22:43:31.226Z,5.63
2019-06-25T22:45:59.673Z,3.57
2019-06-25T22:48:28.096Z,4.10
2019-06-25T22:50:56.560Z,3.63
2019-06-25T22:53:24.998Z,3.47
2019-06-25T22:55:53.504Z,4.70
2019-06-25T22:58:21.955Z,4.10
2019-06-25T23:00:50.673Z,5.87
2019-06-25T23:03:19.106Z,4.43
2019-06-25T23:05:47.553Z,4.07
2019-06-25T23:08:15.982Z,4.70
2019-06-25T23:10:44.419Z,5.17
2019-06-25T23:13:12.861Z,4.10
2019-06-25T23:15:41.326Z,4.33
2019-06-25T23:18:09.897Z,4.50
2019-06-25T23:20:38.488Z,4.30
2019-06-25T23:23:06.912Z,4.20
2019-06-25T23:25:35.345Z,4.13
2019-06-25T23:28:03.937Z,4.80
2019-06-25T23:30:32.417Z,4.67
2019-06-25T23:33:01.513Z,5.40
2019-06-25T23:35:30.109Z,4.13
2019-06-25T23:37:58.534Z,3.83
2019-06-25T23:40:27.044Z,4.23
2019-06-25T23:43:09.337Z,5.07
2019-06-25T23:45:25.652Z,4.10
2019-06-25T23:47:54.085Z,4.03
2019-06-25T23:50:22.765Z,4.20
2019-06-25T23:52:51.204Z,4.40
2019-06-25T23:55:19.712Z,5.60
2019-06-25T23:57:48.142Z,5.27
